Observation data for Friona on 11/17/2019      Previous  Date  Next       Current Mesonet Observations  Soil Data  Daily Summary Page  Observations in Plain Language
KFAS 170600Z 00011KT 07/M01 A30 RMK A01 T00721007  RH  058%=      5-min Rain = 0
KFAS 170605Z 00012KT 08/M01 A3001 RMK A01 T00841008  RH  053%=      5-min Rain = 0
KFAS 170610Z 01013KT 09/M01 A3001 RMK A01 T00851008  RH  053%=      5-min Rain = 0
KFAS 170615Z 01014KT 09/M01 A30 RMK A01 T00881007  RH  052%=      5-min Rain = 0
KFAS 170620Z 02015KT 09/M01 A3001 RMK A01 T00931005  RH  051%=      5-min Rain = 0
KFAS 170625Z 01015KT 09/M01 A3001 RMK A01 T00941005  RH  050%=      5-min Rain = 0
KFAS 170630Z 02015KT 10/M00 A3001 RMK A01 T00961004  RH  050%=      5-min Rain = 0
KFAS 170635Z 01015KT 10/M00 A3001 RMK A01 T00971004  RH  050%=      5-min Rain = 0
KFAS 170640Z 02016KT 10/M00 A3001 RMK A01 T01001003  RH  049%=      5-min Rain = 0
KFAS 170645Z 02015G20KT 10/M00 A3002 RMK A01 T01011004  RH  049%=      5-min Rain = 0
KFAS 170650Z 02016G24KT 10/M01 A3002 RMK A01 T01021008  RH  047%=      5-min Rain = 0
KFAS 170655Z 02017KT 10/M01 A3002 RMK A01 T01041012  RH  045%=      5-min Rain = 0
KFAS 170700Z 02018G24KT 10/M02 A3002 RMK A01 T01041017  RH  043%=      5-min Rain = 0
KFAS 170705Z 02017G22KT 10/M02 A3003 RMK A01 T01021019  RH  043%=      5-min Rain = 0
KFAS 170710Z 01021G27KT 10/M02 A3003 RMK A01 T01021021  RH  042%=      5-min Rain = 0
KFAS 170715Z 01021G26KT 10/M02 A3003 RMK A01 T01031023  RH  041%=      5-min Rain = 0
KFAS 170720Z 01022G29KT 10/M03 A3004 RMK A01 T01041025  RH  041%=      5-min Rain = 0
KFAS 170725Z 01021KT 10/M03 A3004 RMK A01 T01041025  RH  041%=      5-min Rain = 0
KFAS 170730Z 01022G29KT 10/M03 A3004 RMK A01 T01041025  RH  041%=      5-min Rain = 0
KFAS 170735Z 01022G29KT 11/M03 A3004 RMK A01 T01051025  RH  040%=      5-min Rain = 0
KFAS 170740Z 01021G28KT 10/M03 A3005 RMK A01 T01041025  RH  041%=      5-min Rain = 0
KFAS 170745Z 01021G26KT 10/M02 A3005 RMK A01 T01021024  RH  041%=      5-min Rain = 0
KFAS 170750Z 01021G27KT 10/M02 A3005 RMK A01 T01001024  RH  042%=      5-min Rain = 0
KFAS 170755Z 01021G29KT 10/M03 A3006 RMK A01 T01001025  RH  042%=      5-min Rain = 0
KFAS 170800Z 01021G28KT 10/M03 A3006 RMK A01 T01001025  RH  042%=      5-min Rain = 0
KFAS 170805Z 01021G26KT 10/M03 A3006 RMK A01 T00981025  RH  042%=      5-min Rain = 0
KFAS 170810Z 01019G24KT 10/M03 A3007 RMK A01 T00951025  RH  043%=      5-min Rain = 0
KFAS 170815Z 01019G24KT 09/M03 A3007 RMK A01 T00921025  RH  044%=      5-min Rain = 0
KFAS 170820Z 01019G24KT 09/M02 A3007 RMK A01 T00911024  RH  045%=      5-min Rain = 0
KFAS 170825Z 00016G21KT 09/M02 A3008 RMK A01 T00871023  RH  046%=      5-min Rain = 0
KFAS 170830Z 36015G20KT 08/M02 A3008 RMK A01 T00821023  RH  048%=      5-min Rain = 0
KFAS 170835Z 36018G24KT 08/M02 A3008 RMK A01 T00821022  RH  048%=      5-min Rain = 0
KFAS 170840Z 36021G29KT 08/M02 A3009 RMK A01 T00821019  RH  049%=      5-min Rain = 0
KFAS 170845Z 36021G30KT 08/M02 A301 RMK A01 T00821016  RH  051%=      5-min Rain = 0
KFAS 170850Z 00024G32KT 08/M01 A3009 RMK A01 T00801013  RH  052%=      5-min Rain = 0
KFAS 170855Z 01022G27KT 08/M01 A3009 RMK A01 T00781012  RH  054%=      5-min Rain = 0
KFAS 170900Z 01019G26KT 08/M01 A3009 RMK A01 T00751012  RH  055%=      5-min Rain = 0
KFAS 170905Z 00018KT 07/M01 A301 RMK A01 T00721011  RH  056%=      5-min Rain = 0
KFAS 170910Z 01016G21KT 07/M01 A301 RMK A01 T00711011  RH  057%=      5-min Rain = 0
KFAS 170915Z 01016G21KT 07/M01 A301 RMK A01 T00681011  RH  058%=      5-min Rain = 0
KFAS 170920Z 00016G22KT 07/M01 A301 RMK A01 T00671011  RH  058%=      5-min Rain = 0
KFAS 170925Z 36016KT 07/M01 A3011 RMK A01 T00661011  RH  058%=      5-min Rain = 0
KFAS 170930Z 36016G21KT 07/M01 A3011 RMK A01 T00651011  RH  059%=      5-min Rain = 0
KFAS 170935Z 00016KT 06/M01 A3011 RMK A01 T00631010  RH  060%=      5-min Rain = 0
KFAS 170940Z 00016G21KT 06/M01 A3011 RMK A01 T00621010  RH  060%=      5-min Rain = 0
KFAS 170945Z 00015G20KT 06/M01 A3012 RMK A01 T00611010  RH  061%=      5-min Rain = 0
KFAS 170950Z 00015KT 06/M01 A3012 RMK A01 T00601010  RH  062%=      5-min Rain = 0
KFAS 170955Z 00016KT 06/M01 A3012 RMK A01 T00601009  RH  062%=      5-min Rain = 0
KFAS 171000Z 00016KT 06/M01 A3013 RMK A01 T00591009  RH  062%=      5-min Rain = 0
KFAS 171005Z 00016G21KT 06/M01 A3013 RMK A01 T00581009  RH  063%=      5-min Rain = 0
KFAS 171010Z 01015G21KT 06/M01 A3013 RMK A01 T00571008  RH  064%=      5-min Rain = 0
KFAS 171015Z 00016KT 06/M01 A3013 RMK A01 T00561007  RH  065%=      5-min Rain = 0
KFAS 171020Z 01014KT 06/M01 A3013 RMK A01 T00551007  RH  065%=      5-min Rain = 0
KFAS 171025Z 01014KT 05/M01 A3013 RMK A01 T00541006  RH  066%=      5-min Rain = 0
KFAS 171030Z 01014KT 05/M01 A3013 RMK A01 T00521006  RH  067%=      5-min Rain = 0
KFAS 171035Z 00013KT 05/M01 A3013 RMK A01 T00511006  RH  068%=      5-min Rain = 0
KFAS 171040Z 00013KT 05/M01 A3014 RMK A01 T00501006  RH  068%=      5-min Rain = 0
KFAS 171045Z 00013KT 05/M01 A3014 RMK A01 T00481006  RH  069%=      5-min Rain = 0
KFAS 171050Z 36013KT 05/M01 A3014 RMK A01 T00471006  RH  069%=      5-min Rain = 0
KFAS 171055Z 36012KT 05/M01 A3014 RMK A01 T00451006  RH  070%=      5-min Rain = 0
KFAS 171100Z 35012KT 04/M01 A3014 RMK A01 T00431006  RH  071%=      5-min Rain = 0
KFAS 171105Z 35011KT 04/M01 A3015 RMK A01 T00421006  RH  072%=      5-min Rain = 0
KFAS 171110Z 35010KT 04/M01 A3015 RMK A01 T00391006  RH  073%=      5-min Rain = 0
KFAS 171115Z 35009KT 04/M01 A3015 RMK A01 T00351007  RH  075%=      5-min Rain = 0
KFAS 171120Z 35010KT 03/M01 A3015 RMK A01 T00321007  RH  076%=      5-min Rain = 0
KFAS 171125Z 35011KT 03/M01 A3016 RMK A01 T00311008  RH  076%=      5-min Rain = 0
KFAS 171130Z 35011KT 03/M01 A3016 RMK A01 T00291008  RH  077%=      5-min Rain = 0
KFAS 171135Z 35011KT 03/M01 A3016 RMK A01 T00281009  RH  078%=      5-min Rain = 0
KFAS 171140Z 35011KT 03/M01 A3016 RMK A01 T00291008  RH  078%=      5-min Rain = 0
KFAS 171145Z 35012KT 03/M01 A3017 RMK A01 T00301007  RH  077%=      5-min Rain = 0
KFAS 171150Z 35011KT 03/M01 A3017 RMK A01 T00301007  RH  077%=      5-min Rain = 0
KFAS 171155Z 35011KT 03/M01 A3017 RMK A01 T00311006  RH  077%=      5-min Rain = 0
KFAS 171200Z 35011KT 03/M01 A3017 RMK A01 T00311006  RH  078%=      5-min Rain = 0
KFAS 171205Z 35011KT 03/M01 A3018 RMK A01 T00311006  RH  078%=      5-min Rain = 0
KFAS 171210Z 35011KT 03/M01 A3018 RMK A01 T00301006  RH  078%=      5-min Rain = 0
KFAS 171215Z 35012KT 03/M01 A3018 RMK A01 T00301005  RH  078%=      5-min Rain = 0
KFAS 171220Z 35012KT 03/M00 A3018 RMK A01 T00311004  RH  079%=      5-min Rain = 0
KFAS 171225Z 35011KT 03/M00 A3019 RMK A01 T00311003  RH  079%=      5-min Rain = 0
KFAS 171230Z 35011KT 03/M00 A3019 RMK A01 T00301004  RH  079%=      5-min Rain = 0
KFAS 171235Z 35011KT 03/M00 A3019 RMK A01 T00281004  RH  080%=      5-min Rain = 0
KFAS 171240Z 35012KT 03/M00 A3019 RMK A01 T00291003  RH  080%=      5-min Rain = 0
KFAS 171245Z 35011KT 03/M00 A302 RMK A01 T00301002  RH  080%=      5-min Rain = 0
KFAS 171250Z 35010KT 03/M00 A302 RMK A01 T00301002  RH  081%=      5-min Rain = 0
KFAS 171255Z 36010KT 03/M00 A302 RMK A01 T00291001  RH  081%=      5-min Rain = 0
KFAS 171300Z 36010KT 03/M00 A302 RMK A01 T00291001  RH  082%=      5-min Rain = 0
KFAS 171305Z 36010KT 03/00 A302 RMK A01 T00290000  RH  082%=      5-min Rain = 0
KFAS 171310Z 36010KT 03/00 A3021 RMK A01 T00300001  RH  083%=      5-min Rain = 0
KFAS 171315Z 36010KT 03/00 A3021 RMK A01 T00300003  RH  083%=      5-min Rain = 0
KFAS 171320Z 36011KT 03/00 A3021 RMK A01 T00300003  RH  083%=      5-min Rain = 0
KFAS 171325Z 36011KT 03/00 A3021 RMK A01 T00290004  RH  084%=      5-min Rain = 0
KFAS 171330Z 36011KT 03/00 A3021 RMK A01 T00290004  RH  085%=      5-min Rain = 0
KFAS 171335Z 00011KT 03/01 A3021 RMK A01 T00300005  RH  085%=      5-min Rain = 0
KFAS 171340Z 00011KT 03/01 A3021 RMK A01 T00300005  RH  085%=      5-min Rain = 0
KFAS 171345Z 00011KT 03/01 A3022 RMK A01 T00290005  RH  085%=      5-min Rain = 0
KFAS 171350Z 00011KT 03/01 A3022 RMK A01 T00290005  RH  086%=      5-min Rain = 0
KFAS 171355Z 00011KT 03/01 A3021 RMK A01 T00290006  RH  086%=      5-min Rain = 0
KFAS 171400Z 00012KT 03/01 A3021 RMK A01 T00310007  RH  086%=      5-min Rain = 0
KFAS 171405Z 00011KT 03/01 A3022 RMK A01 T00320008  RH  085%=      5-min Rain = 0
KFAS 171410Z 36011KT 03/01 A3022 RMK A01 T00340009  RH  085%=      5-min Rain = 0
KFAS 171415Z 36011KT 04/01 A3022 RMK A01 T00360010  RH  084%=      5-min Rain = 0
KFAS 171420Z 35012KT 04/01 A3022 RMK A01 T00380011  RH  084%=      5-min Rain = 0
KFAS 171425Z 35011G16KT 04/01 A3023 RMK A01 T00400012  RH  083%=      5-min Rain = 0
KFAS 171430Z 35010KT 04/01 A3023 RMK A01 T00420013  RH  083%=      5-min Rain = 0
KFAS 171435Z 35010KT 04/01 A3023 RMK A01 T00430013  RH  082%=      5-min Rain = 0
KFAS 171440Z 35010KT 05/02 A3023 RMK A01 T00460015  RH  081%=      5-min Rain = 0
KFAS 171445Z 35009KT 05/02 A3023 RMK A01 T00490016  RH  081%=      5-min Rain = 0
KFAS 171450Z 36010KT 05/02 A3024 RMK A01 T00510017  RH  080%=      5-min Rain = 0
KFAS 171455Z 36011G16KT 05/02 A3024 RMK A01 T00540018  RH  079%=      5-min Rain = 0
KFAS 171500Z 36011KT 06/02 A3024 RMK A01 T00560019  RH  078%=      5-min Rain = 0
KFAS 171505Z 36012KT 06/02 A3024 RMK A01 T00580019  RH  077%=      5-min Rain = 0
KFAS 171510Z 00013KT 06/02 A3024 RMK A01 T00590020  RH  077%=      5-min Rain = 0
KFAS 171515Z 00015KT 06/02 A3023 RMK A01 T00610020  RH  076%=      5-min Rain = 0
KFAS 171520Z 01015KT 06/02 A3023 RMK A01 T00620020  RH  075%=      5-min Rain = 0
KFAS 171525Z 01017KT 07/02 A3023 RMK A01 T00650020  RH  074%=      5-min Rain = 0
KFAS 171530Z 01017KT 07/02 A3023 RMK A01 T00670020  RH  073%=      5-min Rain = 0
KFAS 171535Z 01017G22KT 07/02 A3023 RMK A01 T00690020  RH  072%=      5-min Rain = 0
KFAS 171540Z 01018KT 07/02 A3023 RMK A01 T00710020  RH  071%=      5-min Rain = 0
KFAS 171545Z 02017G22KT 07/02 A3023 RMK A01 T00730019  RH  070%=      5-min Rain = 0
KFAS 171550Z 01015KT 08/02 A3023 RMK A01 T00750020  RH  069%=      5-min Rain = 0
KFAS 171555Z 01015KT 08/02 A3023 RMK A01 T00770020  RH  068%=      5-min Rain = 0
KFAS 171600Z 02013KT 08/02 A3023 RMK A01 T00800021  RH  067%=      5-min Rain = 0
KFAS 171605Z 02014KT 08/02 A3023 RMK A01 T00820020  RH  066%=      5-min Rain = 0
KFAS 171610Z 02014KT 08/02 A3023 RMK A01 T00830020  RH  066%=      5-min Rain = 0
KFAS 171615Z 02014G19KT 09/02 A3023 RMK A01 T00850021  RH  065%=      5-min Rain = 0
KFAS 171620Z 02013KT 09/02 A3023 RMK A01 T00850021  RH  065%=      5-min Rain = 0
KFAS 171625Z 01012G17KT 09/02 A3023 RMK A01 T00880021  RH  064%=      5-min Rain = 0
KFAS 171630Z 02012KT 09/02 A3023 RMK A01 T00890020  RH  063%=      5-min Rain = 0
KFAS 171635Z 03012KT 09/02 A3023 RMK A01 T00900020  RH  062%=      5-min Rain = 0
KFAS 171640Z 03011G17KT 09/02 A3023 RMK A01 T00910019  RH  062%=      5-min Rain = 0
KFAS 171645Z 03010KT 09/02 A3023 RMK A01 T00940021  RH  061%=      5-min Rain = 0
KFAS 171650Z 03010KT 10/02 A3023 RMK A01 T00950020  RH  060%=      5-min Rain = 0
KFAS 171655Z 02010G15KT 10/02 A3023 RMK A01 T00980020  RH  059%=      5-min Rain = 0
KFAS 171700Z 02008G14KT 10/02 A3023 RMK A01 T00990022  RH  059%=      5-min Rain = 0
KFAS 171705Z 01010KT 10/02 A3023 RMK A01 T01010021  RH  059%=      5-min Rain = 0
KFAS 171710Z 01009KT 10/02 A3023 RMK A01 T01030021  RH  058%=      5-min Rain = 0
KFAS 171715Z 03010KT 10/02 A3022 RMK A01 T01020021  RH  058%=      5-min Rain = 0
KFAS 171720Z 02008KT 10/02 A3022 RMK A01 T01030021  RH  058%=      5-min Rain = 0
KFAS 171725Z 02007G12KT 11/02 A3022 RMK A01 T01060022  RH  057%=      5-min Rain = 0
KFAS 171730Z 02011KT 11/02 A3022 RMK A01 T01060020  RH  056%=      5-min Rain = 0
KFAS 171735Z 01009G18KT 11/02 A3022 RMK A01 T01070022  RH  057%=      5-min Rain = 0
KFAS 171740Z 00010G15KT 11/02 A3022 RMK A01 T01100022  RH  055%=      5-min Rain = 0
KFAS 171745Z 00009KT 11/02 A3021 RMK A01 T01090021  RH  055%=      5-min Rain = 0
KFAS 171750Z 02007KT 11/02 A3021 RMK A01 T01100022  RH  055%=      5-min Rain = 0
KFAS 171755Z 03006G11KT 11/02 A3022 RMK A01 T01090022  RH  056%=      5-min Rain = 0
KFAS 171800Z 03009KT 11/02 A3021 RMK A01 T01120021  RH  054%=      5-min Rain = 0
KFAS 171805Z 03009G14KT 11/02 A3021 RMK A01 T01120022  RH  055%=      5-min Rain = 0
KFAS 171810Z 03006G12KT 11/02 A3021 RMK A01 T01140022  RH  054%=      5-min Rain = 0
KFAS 171815Z 02008G13KT 12/02 A3021 RMK A01 T01170023  RH  053%=      5-min Rain = 0
KFAS 171820Z 00007G12KT 12/02 A3021 RMK A01 T01190022  RH  052%=      5-min Rain = 0
KFAS 171825Z 02009KT 12/02 A3021 RMK A01 T01210023  RH  052%=      5-min Rain = 0
KFAS 171830Z 03006G11KT 12/02 A3021 RMK A01 T01190021  RH  052%=      5-min Rain = 0
KFAS 171835Z 02010KT 12/02 A3021 RMK A01 T01200022  RH  052%=      5-min Rain = 0
KFAS 171840Z 01010KT 12/02 A3021 RMK A01 T01210021  RH  051%=      5-min Rain = 0
KFAS 171845Z 01010G15KT 12/02 A302 RMK A01 T01210021  RH  051%=      5-min Rain = 0
KFAS 171850Z 01009KT 12/02 A302 RMK A01 T01230022  RH  051%=      5-min Rain = 0
KFAS 171855Z 02009KT 12/02 A302 RMK A01 T01240022  RH  051%=      5-min Rain = 0
KFAS 171900Z 01010G15KT 13/02 A3019 RMK A01 T01270022  RH  050%=      5-min Rain = 0
KFAS 171905Z 02007KT 13/02 A3019 RMK A01 T01260022  RH  050%=      5-min Rain = 0
KFAS 171910Z 02007G13KT 13/02 A3019 RMK A01 T01260019  RH  049%=      5-min Rain = 0
KFAS 171915Z 02006KT 13/02 A3018 RMK A01 T01280021  RH  049%=      5-min Rain = 0
KFAS 171920Z 01008KT 13/02 A3018 RMK A01 T01300019  RH  047%=      5-min Rain = 0
KFAS 171925Z 01008KT 13/02 A3018 RMK A01 T01310018  RH  047%=      5-min Rain = 0
KFAS 171930Z 33003KT 13/02 A3017 RMK A01 T01280016  RH  047%=      5-min Rain = 0
KFAS 171935Z 01005G10KT 13/02 A3017 RMK A01 T01310017  RH  047%=      5-min Rain = 0
KFAS 171940Z 02007KT 13/02 A3016 RMK A01 T01300016  RH  046%=      5-min Rain = 0
KFAS 171945Z 00003KT 13/02 A3016 RMK A01 T01290015  RH  047%=      5-min Rain = 0
KFAS 171950Z 01004KT 13/02 A3016 RMK A01 T01310016  RH  046%=      5-min Rain = 0
KFAS 171955Z 00003KT 13/02 A3016 RMK A01 T01300015  RH  046%=      5-min Rain = 0
KFAS 172000Z 01003G8KT 13/02 A3015 RMK A01 T01320015  RH  045%=      5-min Rain = 0
KFAS 172005Z 01005KT 13/01 A3015 RMK A01 T01340011  RH  044%=      5-min Rain = 0
KFAS 172010Z 03003KT 13/01 A3015 RMK A01 T01340013  RH  044%=      5-min Rain = 0
KFAS 172015Z 05002KT 14/01 A3014 RMK A01 T01350012  RH  044%=      5-min Rain = 0
KFAS 172020Z 03001KT 14/01 A3014 RMK A01 T01360013  RH  044%=      5-min Rain = 0
KFAS 172025Z 14002KT 14/01 A3014 RMK A01 T01400014  RH  043%=      5-min Rain = 0
KFAS 172030Z 04003KT 14/01 A3013 RMK A01 T01410011  RH  042%=      5-min Rain = 0
KFAS 172035Z 27001KT 14/01 A3013 RMK A01 T01420012  RH  042%=      5-min Rain = 0
KFAS 172040Z 09002KT 15/01 A3013 RMK A01 T01450011  RH  041%=      5-min Rain = 0
KFAS 172045Z 05003KT 14/01 A3013 RMK A01 T01440013  RH  041%=      5-min Rain = 0
KFAS 172050Z 35001KT 14/01 A3013 RMK A01 T01430012  RH  041%=      5-min Rain = 0
KFAS 172055Z 30002KT 14/01 A3012 RMK A01 T01430009  RH  041%=      5-min Rain = 0
KFAS 172100Z 30003KT 14/01 A3012 RMK A01 T01440010  RH  041%=      5-min Rain = 0
KFAS 172105Z 32002KT 14/01 A3012 RMK A01 T01410010  RH  041%=      5-min Rain = 0
KFAS 172110Z 22001KT 14/01 A3012 RMK A01 T01440010  RH  041%=      5-min Rain = 0
KFAS 172115Z 22002KT 15/01 A3012 RMK A01 T01480011  RH  040%=      5-min Rain = 0
KFAS 172120Z 18002KT 15/01 A3011 RMK A01 T01490010  RH  039%=      5-min Rain = 0
KFAS 172125Z 20002KT 15/01 A3011 RMK A01 T01460010  RH  040%=      5-min Rain = 0
KFAS 172130Z 26002KT 15/01 A3011 RMK A01 T01480010  RH  039%=      5-min Rain = 0
KFAS 172135Z 27002KT 15/01 A3011 RMK A01 T01470008  RH  039%=      5-min Rain = 0
KFAS 172140Z 25002KT 15/01 A3011 RMK A01 T01480008  RH  039%=      5-min Rain = 0
KFAS 172145Z 22002KT 15/01 A3011 RMK A01 T01490007  RH  038%=      5-min Rain = 0
KFAS 172150Z 24003KT 15/01 A3011 RMK A01 T01470007  RH  039%=      5-min Rain = 0
KFAS 172155Z 26001KT 15/01 A3012 RMK A01 T01480007  RH  039%=      5-min Rain = 0
KFAS 172200Z 27001KT 15/01 A3012 RMK A01 T01490008  RH  039%=      5-min Rain = 0
KFAS 172205Z 25002KT 15/01 A3012 RMK A01 T01480008  RH  039%=      5-min Rain = 0
KFAS 172210Z 17003KT 15/01 A3011 RMK A01 T01480010  RH  039%=      5-min Rain = 0
KFAS 172215Z 15002KT 15/01 A3011 RMK A01 T01490009  RH  039%=      5-min Rain = 0
KFAS 172220Z 16002KT 15/01 A3011 RMK A01 T01520009  RH  038%=      5-min Rain = 0
KFAS 172225Z 19003KT 15/01 A3011 RMK A01 T01480007  RH  039%=      5-min Rain = 0
KFAS 172230Z 29001KT 15/01 A3012 RMK A01 T01470007  RH  039%=      5-min Rain = 0
KFAS 172235Z 25001KT 15/01 A3012 RMK A01 T01500008  RH  039%=      5-min Rain = 0
KFAS 172240Z 23003KT 15/01 A3012 RMK A01 T01490009  RH  039%=      5-min Rain = 0
KFAS 172245Z 18002KT 15/01 A3012 RMK A01 T01470010  RH  040%=      5-min Rain = 0
KFAS 172250Z 19004KT 14/01 A3012 RMK A01 T01440009  RH  040%=      5-min Rain = 0
KFAS 172255Z 17004KT 14/01 A3012 RMK A01 T01420010  RH  041%=      5-min Rain = 0
KFAS 172300Z 17004KT 14/01 A3012 RMK A01 T01390012  RH  042%=      5-min Rain = 0
KFAS 172305Z 18004KT 14/01 A3012 RMK A01 T01370013  RH  044%=      5-min Rain = 0
KFAS 172310Z 17004KT 13/01 A3012 RMK A01 T01340013  RH  044%=      5-min Rain = 0
KFAS 172315Z 17005KT 13/01 A3012 RMK A01 T01320012  RH  045%=      5-min Rain = 0
KFAS 172320Z 17004KT 13/01 A3012 RMK A01 T01280012  RH  046%=      5-min Rain = 0
KFAS 172325Z 17004KT 13/01 A3012 RMK A01 T01250013  RH  047%=      5-min Rain = 0
KFAS 172330Z 16004KT 12/01 A3011 RMK A01 T01210012  RH  048%=      5-min Rain = 0
KFAS 172335Z 17005KT 12/01 A3011 RMK A01 T01150011  RH  049%=      5-min Rain = 0
KFAS 172340Z 17005KT 11/01 A3011 RMK A01 T01060010  RH  052%=      5-min Rain = 0
KFAS 172345Z 17006KT 10/01 A3011 RMK A01 T01020009  RH  053%=      5-min Rain = 0
KFAS 172350Z 17006KT 10/01 A3011 RMK A01 T00960009  RH  055%=      5-min Rain = 0
KFAS 172355Z 16007KT 09/01 A3011 RMK A01 T00910007  RH  057%=      5-min Rain = 0
KFAS 180000Z 17007KT 09/01 A3011 RMK A01 T00860005  RH  058%=      5-min Rain = 0
KFAS 180005Z 17007KT 08/01 A3011 RMK A01 T00810006  RH  060%=      5-min Rain = 0
KFAS 180010Z 17007KT 08/01 A3011 RMK A01 T00770006  RH  061%=      5-min Rain = 0
KFAS 180015Z 16007KT 07/00 A3011 RMK A01 T00740004  RH  062%=      5-min Rain = 0
KFAS 180020Z 17008KT 07/00 A3011 RMK A01 T00700002  RH  062%=      5-min Rain = 0
KFAS 180025Z 17008KT 07/00 A3011 RMK A01 T00670002  RH  064%=      5-min Rain = 0
KFAS 180030Z 17008KT 06/00 A3011 RMK A01 T00640003  RH  066%=      5-min Rain = 0
KFAS 180035Z 18007KT 07/01 A3011 RMK A01 T00660005  RH  066%=      5-min Rain = 0
KFAS 180040Z 18006KT 07/00 A3011 RMK A01 T00670004  RH  065%=      5-min Rain = 0
KFAS 180045Z 18006KT 06/00 A3012 RMK A01 T00630002  RH  066%=      5-min Rain = 0
KFAS 180050Z 17007KT 06/M00 A3011 RMK A01 T00591001  RH  066%=      5-min Rain = 0
KFAS 180055Z 18006KT 06/M00 A3011 RMK A01 T00561001  RH  068%=      5-min Rain = 0
KFAS 180100Z 19004KT 05/00 A3011 RMK A01 T00540001  RH  069%=      5-min Rain = 0
KFAS 180105Z 18004KT 05/00 A3011 RMK A01 T00530003  RH  071%=      5-min Rain = 0
KFAS 180110Z 18005KT 05/01 A3011 RMK A01 T00530005  RH  072%=      5-min Rain = 0
KFAS 180115Z 18006KT 06/00 A3011 RMK A01 T00550003  RH  070%=      5-min Rain = 0
KFAS 180120Z 17005KT 05/00 A3011 RMK A01 T00520002  RH  071%=      5-min Rain = 0
KFAS 180125Z 17006KT 05/00 A3011 RMK A01 T00520002  RH  071%=      5-min Rain = 0
KFAS 180130Z 17007KT 05/00 A3011 RMK A01 T00490000  RH  071%=      5-min Rain = 0
KFAS 180135Z 17007KT 05/00 A3011 RMK A01 T00470002  RH  074%=      5-min Rain = 0
KFAS 180140Z 17007KT 05/00 A3011 RMK A01 T00490004  RH  074%=      5-min Rain = 0
KFAS 180145Z 17008KT 05/00 A3011 RMK A01 T00480003  RH  073%=      5-min Rain = 0
KFAS 180150Z 17007KT 05/00 A3011 RMK A01 T00460002  RH  074%=      5-min Rain = 0
KFAS 180155Z 18007KT 05/01 A3012 RMK A01 T00480005  RH  074%=      5-min Rain = 0
KFAS 180200Z 18006KT 05/00 A3012 RMK A01 T00500004  RH  073%=      5-min Rain = 0
KFAS 180205Z 18006KT 05/00 A3012 RMK A01 T00480003  RH  074%=      5-min Rain = 0
KFAS 180210Z 18006KT 05/00 A3012 RMK A01 T00470004  RH  074%=      5-min Rain = 0
KFAS 180215Z 18006KT 05/00 A3012 RMK A01 T00450002  RH  074%=      5-min Rain = 0
KFAS 180220Z 17006KT 04/00 A3012 RMK A01 T00440001  RH  075%=      5-min Rain = 0
KFAS 180225Z 17006KT 04/00 A3012 RMK A01 T00440002  RH  075%=      5-min Rain = 0
KFAS 180230Z 18006KT 05/00 A3012 RMK A01 T00450003  RH  075%=      5-min Rain = 0
KFAS 180235Z 18006KT 04/00 A3012 RMK A01 T00440002  RH  075%=      5-min Rain = 0
KFAS 180240Z 17006KT 05/00 A3012 RMK A01 T00450003  RH  075%=      5-min Rain = 0
KFAS 180245Z 17006KT 05/00 A3012 RMK A01 T00480004  RH  075%=      5-min Rain = 0
KFAS 180250Z 18006KT 05/00 A3012 RMK A01 T00450001  RH  074%=      5-min Rain = 0
KFAS 180255Z 18006KT 04/00 A3012 RMK A01 T00410001  RH  076%=      5-min Rain = 0
KFAS 180300Z 18006KT 04/00 A3012 RMK A01 T00400002  RH  077%=      5-min Rain = 0
KFAS 180305Z 17006KT 04/00 A3012 RMK A01 T00400001  RH  077%=      5-min Rain = 0
KFAS 180310Z 18005KT 04/00 A3012 RMK A01 T00390002  RH  078%=      5-min Rain = 0
KFAS 180315Z 18005KT 04/00 A3012 RMK A01 T00400002  RH  077%=      5-min Rain = 0
KFAS 180320Z 19005KT 04/00 A3012 RMK A01 T003800-0  RH  077%=      5-min Rain = 0
KFAS 180325Z 19006KT 04/M00 A3012 RMK A01 T00351001  RH  078%=      5-min Rain = 0
KFAS 180330Z 19007KT 03/M00 A3012 RMK A01 T00341001  RH  079%=      5-min Rain = 0
KFAS 180335Z 19007KT 03/00 A3012 RMK A01 T00320000  RH  080%=      5-min Rain = 0
KFAS 180340Z 19007KT 03/00 A3013 RMK A01 T00340001  RH  080%=      5-min Rain = 0
KFAS 180345Z 20007KT 03/00 A3013 RMK A01 T003200-0  RH  080%=      5-min Rain = 0
KFAS 180350Z 19007KT 03/M00 A3012 RMK A01 T00301002  RH  081%=      5-min Rain = 0
KFAS 180355Z 19007KT 03/00 A3012 RMK A01 T00310001  RH  081%=      5-min Rain = 0
KFAS 180400Z 19008KT 03/00 A3012 RMK A01 T00330002  RH  081%=      5-min Rain = 0
KFAS 180405Z 20008KT 04/00 A3012 RMK A01 T00350004  RH  081%=      5-min Rain = 0
KFAS 180410Z 20008KT 03/00 A3011 RMK A01 T00320001  RH  081%=      5-min Rain = 0
KFAS 180415Z 20007KT 03/00 A3011 RMK A01 T002900-0  RH  082%=      5-min Rain = 0
KFAS 180420Z 20008KT 03/M00 A3011 RMK A01 T00271001  RH  083%=      5-min Rain = 0
KFAS 180425Z 20008KT 03/00 A3011 RMK A01 T00290001  RH  083%=      5-min Rain = 0
KFAS 180430Z 20008KT 03/00 A3011 RMK A01 T00310002  RH  082%=      5-min Rain = 0
KFAS 180435Z 20007KT 03/M00 A3011 RMK A01 T00291001  RH  081%=      5-min Rain = 0
KFAS 180440Z 20007KT 03/M00 A3011 RMK A01 T00261004  RH  081%=      5-min Rain = 0
KFAS 180445Z 20007KT 02/M01 A3011 RMK A01 T00231006  RH  082%=      5-min Rain = 0
KFAS 180450Z 20007KT 02/M01 A3011 RMK A01 T00201007  RH  083%=      5-min Rain = 0
KFAS 180455Z 20007KT 02/M01 A3011 RMK A01 T00181007  RH  084%=      5-min Rain = 0
KFAS 180500Z 21006KT 02/M01 A3011 RMK A01 T00161009  RH  084%=      5-min Rain = 0
KFAS 180505Z 21007KT 02/M01 A3011 RMK A01 T00161008  RH  085%=      5-min Rain = 0
KFAS 180510Z 21007KT 02/M00 A301 RMK A01 T00181003  RH  087%=      5-min Rain = 0
KFAS 180515Z 21007KT 02/M00 A301 RMK A01 T00221001  RH  086%=      5-min Rain = 0
KFAS 180520Z 21008KT 03/00 A301 RMK A01 T00250002  RH  086%=      5-min Rain = 0
KFAS 180525Z 21008KT 03/00 A3009 RMK A01 T00300004  RH  084%=      5-min Rain = 0
KFAS 180530Z 21008KT 03/00 A3009 RMK A01 T00320003  RH  082%=      5-min Rain = 0
KFAS 180535Z 20009KT 03/00 A3009 RMK A01 T00310002  RH  082%=      5-min Rain = 0
KFAS 180540Z 20009KT 03/00 A3008 RMK A01 T00300000  RH  082%=      5-min Rain = 0
KFAS 180545Z 20009KT 03/M00 A3008 RMK A01 T00281001  RH  082%=      5-min Rain = 0
KFAS 180550Z 20009KT 03/M00 A3008 RMK A01 T00271002  RH  082%=      5-min Rain = 0
KFAS 180555Z 21009KT 03/M00 A3008 RMK A01 T00251002  RH  083%=      5-min Rain = 0

Page generated in 0.0088 seconds.